Time,TemperatureF,DewpointF,PressureIn,WindDirection,WindDirectionDegrees,WindSpeedMPH,WindSpeedGustMPH,Humidity,HourlyPrecipIn,Conditions,Clouds,dailyrainin,SoftwareType,DateUTC
2013-07-30 00:02:00,60.0,41.0,-100.00,ESE,123,7.0,9.0,49,-99.99,,,-99.99,,2013-07-30 06:02:00,
2013-07-30 00:12:00,60.0,41.0,-100.00,SE,144,9.0,10.0,50,-99.99,,,-99.99,,2013-07-30 06:12:00,
2013-07-30 00:22:00,60.0,41.0,-100.00,SE,125,9.0,9.0,49,-99.99,,,-99.99,,2013-07-30 06:22:00,
2013-07-30 00:43:00,60.0,41.0,-100.00,SE,128,8.0,12.0,49,-99.99,,,-99.99,,2013-07-30 06:43:00,
2013-07-30 00:52:00,60.0,41.0,-100.00,ESE,114,8.0,12.0,49,-99.99,,,-99.99,,2013-07-30 06:52:00,
2013-07-30 01:13:00,60.0,41.0,-100.00,ESE,104,10.0,14.0,49,-99.99,,,-99.99,,2013-07-30 07:13:00,
2013-07-30 01:23:00,59.0,41.0,-100.00,East,92,10.0,13.0,51,-99.99,,,-99.99,,2013-07-30 07:23:00,
2013-07-30 01:33:00,59.0,42.0,-100.00,ESE,108,12.0,13.0,53,-99.99,,,-99.99,,2013-07-30 07:33:00,
2013-07-30 01:53:00,58.0,42.0,-100.00,East,89,11.0,12.0,55,-99.99,,,-99.99,,2013-07-30 07:53:00,
2013-07-30 02:02:00,57.0,42.0,-100.00,East,87,10.0,13.0,56,-99.99,,,-99.99,,2013-07-30 08:02:00,
2013-07-30 02:22:00,58.0,42.0,-100.00,ENE,69,10.0,12.0,54,-99.99,,,-99.99,,2013-07-30 08:22:00,
2013-07-30 02:32:00,57.0,42.0,-100.00,ENE,77,11.0,13.0,56,-99.99,,,-99.99,,2013-07-30 08:32:00,
2013-07-30 02:42:00,57.0,42.0,-100.00,East,93,12.0,14.0,57,-99.99,,,-99.99,,2013-07-30 08:42:00,
2013-07-30 02:52:00,59.0,41.0,-100.00,East,100,12.0,14.0,52,-99.99,,,-99.99,,2013-07-30 08:52:00,
2013-07-30 03:02:00,57.0,42.0,-100.00,East,83,9.0,13.0,56,-99.99,,,-99.99,,2013-07-30 09:02:00,
2013-07-30 03:22:00,57.0,42.0,-100.00,ENE,76,8.0,10.0,56,-99.99,,,-99.99,,2013-07-30 09:22:00,
2013-07-30 03:43:00,57.0,41.0,-100.00,ENE,74,8.0,10.0,55,-99.99,,,-99.99,,2013-07-30 09:43:00,
2013-07-30 03:53:00,57.0,41.0,-100.00,ENE,74,8.0,10.0,55,-99.99,,,-99.99,,2013-07-30 09:53:00,
2013-07-30 04:02:00,57.0,41.0,-100.00,ENE,75,11.0,11.0,55,-99.99,,,-99.99,,2013-07-30 10:02:00,
2013-07-30 04:12:00,57.0,41.0,-100.00,ENE,75,11.0,11.0,55,-99.99,,,-99.99,,2013-07-30 10:12:00,
2013-07-30 04:43:00,57.0,41.0,-100.00,East,79,9.0,10.0,54,-99.99,,,-99.99,,2013-07-30 10:43:00,
2013-07-30 04:52:00,58.0,41.0,-100.00,East,87,8.0,9.0,53,-99.99,,,-99.99,,2013-07-30 10:52:00,
2013-07-30 05:02:00,58.0,41.0,-100.00,ESE,111,8.0,9.0,51,-99.99,,,-99.99,,2013-07-30 11:02:00,
2013-07-30 05:11:00,60.0,41.0,-100.00,ESE,121,7.0,9.0,50,-99.99,,,-99.99,,2013-07-30 11:11:00,
2013-07-30 05:22:00,59.0,42.0,-100.00,SE,145,7.0,10.0,52,-99.99,,,-99.99,,2013-07-30 11:22:00,
2013-07-30 05:33:00,59.0,43.0,-100.00,SE,145,8.0,9.0,54,-99.99,,,-99.99,,2013-07-30 11:33:00,
2013-07-30 05:43:00,59.0,42.0,-100.00,SE,126,5.0,8.0,52,-99.99,,,-99.99,,2013-07-30 11:43:00,
2013-07-30 06:12:00,60.0,42.0,-100.00,ESE,121,6.0,13.0,51,-99.99,,,-99.99,,2013-07-30 12:12:00,
2013-07-30 06:22:00,60.0,42.0,-100.00,SE,129,8.0,9.0,51,-99.99,,,-99.99,,2013-07-30 12:22:00,
2013-07-30 06:33:00,59.0,42.0,-100.00,East,92,7.0,12.0,53,-99.99,,,-99.99,,2013-07-30 12:33:00,
2013-07-30 06:42:00,58.0,42.0,-100.00,East,86,6.0,8.0,55,-99.99,,,-99.99,,2013-07-30 12:42:00,
2013-07-30 06:53:00,58.0,42.0,-100.00,East,86,6.0,8.0,55,-99.99,,,-99.99,,2013-07-30 12:53:00,
2013-07-30 07:12:00,59.0,41.0,-100.00,ESE,105,7.0,9.0,51,-99.99,,,-99.99,,2013-07-30 13:12:00,
2013-07-30 07:32:00,59.0,42.0,-100.00,East,91,7.0,9.0,51,-99.99,,,-99.99,,2013-07-30 13:32:00,
2013-07-30 07:42:00,59.0,42.0,-100.00,East,91,7.0,9.0,51,-99.99,,,-99.99,,2013-07-30 13:42:00,
2013-07-30 10:12:00,68.0,42.0,-100.00,SSE,152,2.0,6.0,39,-99.99,,,-99.99,,2013-07-30 16:12:00,
2013-07-30 10:22:00,68.0,42.0,-100.00,South,182,7.0,12.0,37,-99.99,,,-99.99,,2013-07-30 16:22:00,
2013-07-30 10:43:00,70.0,43.0,-100.00,South,184,10.0,12.0,37,-99.99,,,-99.99,,2013-07-30 16:43:00,
2013-07-30 11:22:00,71.0,39.0,-100.00,SSW,202,18.0,22.0,31,-99.99,,,-99.99,,2013-07-30 17:22:00,
2013-07-30 11:43:00,73.0,42.0,-100.00,SSW,195,18.0,23.0,32,-99.99,,,-99.99,,2013-07-30 17:43:00,
2013-07-30 11:53:00,73.0,42.0,-100.00,SSW,195,18.0,23.0,32,-99.99,,,-99.99,,2013-07-30 17:53:00,
2013-07-30 12:02:00,72.0,40.0,-100.00,SSW,201,17.0,23.0,31,-99.99,,,-99.99,,2013-07-30 18:02:00,
2013-07-30 12:12:00,74.0,39.0,-100.00,SSW,207,20.0,22.0,28,-99.99,,,-99.99,,2013-07-30 18:12:00,
2013-07-30 12:22:00,74.0,39.0,-100.00,SSW,203,18.0,23.0,28,-99.99,,,-99.99,,2013-07-30 18:22:00,
2013-07-30 12:42:00,74.0,39.0,-100.00,SSW,197,18.0,22.0,28,-99.99,,,-99.99,,2013-07-30 18:42:00,
2013-07-30 12:52:00,75.0,40.0,-100.00,SSW,197,17.0,25.0,28,-99.99,,,-99.99,,2013-07-30 18:52:00,
2013-07-30 13:02:00,75.0,39.0,-100.00,SW,227,9.0,21.0,26,-99.99,,,-99.99,,2013-07-30 19:02:00,
2013-07-30 13:22:00,77.0,39.0,-100.00,SSW,204,8.0,21.0,26,-99.99,,,-99.99,,2013-07-30 19:22:00,
2013-07-30 13:43:00,77.0,37.0,-100.00,SSW,193,17.0,26.0,23,-99.99,,,-99.99,,2013-07-30 19:43:00,
2013-07-30 13:52:00,77.0,37.0,-100.00,SW,230,20.0,25.0,23,-99.99,,,-99.99,,2013-07-30 19:52:00,
2013-07-30 14:22:00,78.0,39.0,-100.00,SSW,209,19.0,24.0,24,-99.99,,,-99.99,,2013-07-30 20:22:00,
2013-07-30 14:32:00,78.0,37.0,-100.00,SSW,199,23.0,30.0,22,-99.99,,,-99.99,,2013-07-30 20:32:00,
2013-07-30 14:43:00,79.0,35.0,-100.00,SW,217,23.0,33.0,20,-99.99,,,-99.99,,2013-07-30 20:43:00,
2013-07-30 14:50:00,80.0,37.0,-100.00,SSW,201,15.0,24.0,21,-99.99,,,-99.99,,2013-07-30 20:50:00,
2013-07-30 15:02:00,80.0,36.0,-100.00,SW,222,22.0,30.0,20,-99.99,,,-99.99,,2013-07-30 21:02:00,
2013-07-30 15:12:00,80.0,38.0,-100.00,SW,215,18.0,27.0,22,-99.99,,,-99.99,,2013-07-30 21:12:00,
2013-07-30 15:22:00,80.0,37.0,-100.00,SSW,201,15.0,24.0,21,-99.99,,,-99.99,,2013-07-30 21:22:00,
2013-07-30 15:32:00,80.0,37.0,-100.00,SSW,201,15.0,24.0,21,-99.99,,,-99.99,,2013-07-30 21:32:00,
2013-07-30 15:40:00,80.0,31.0,-100.00,South,186,11.0,22.0,16,-99.99,,,-99.99,,2013-07-30 21:40:00,
2013-07-30 15:42:00,80.0,37.0,-100.00,SSW,201,15.0,24.0,21,-99.99,,,-99.99,,2013-07-30 21:42:00,
2013-07-30 16:22:00,80.0,31.0,-100.00,South,186,11.0,22.0,16,-99.99,,,-99.99,,2013-07-30 22:22:00,
2013-07-30 16:32:00,80.0,31.0,-100.00,South,186,11.0,22.0,16,-99.99,,,-99.99,,2013-07-30 22:32:00,
2013-07-30 17:32:00,81.0,33.0,-100.00,SW,230,11.0,21.0,17,-99.99,,,-99.99,,2013-07-30 23:32:00,
2013-07-30 17:53:00,80.0,32.0,-100.00,SW,229,21.0,21.0,17,-99.99,,,-99.99,,2013-07-30 23:53:00,
2013-07-30 18:02:00,80.0,33.0,-100.00,SSW,208,17.0,20.0,18,-99.99,,,-99.99,,2013-07-31 00:02:00,
2013-07-30 18:22:00,79.0,33.0,-100.00,SW,221,14.0,23.0,18,-99.99,,,-99.99,,2013-07-31 00:22:00,
2013-07-30 18:32:00,79.0,33.0,-100.00,SSW,197,15.0,20.0,18,-99.99,,,-99.99,,2013-07-31 00:32:00,
2013-07-30 18:53:00,79.0,31.0,-100.00,SSW,210,18.0,22.0,17,-99.99,,,-99.99,,2013-07-31 00:53:00,
2013-07-30 19:32:00,78.0,31.0,-100.00,SSW,195,11.0,20.0,17,-99.99,,,-99.99,,2013-07-31 01:32:00,
2013-07-30 19:52:00,78.0,31.0,-100.00,SW,217,13.0,24.0,17,-99.99,,,-99.99,,2013-07-31 01:52:00,
2013-07-30 20:11:00,77.0,31.0,-100.00,SW,222,9.0,11.0,19,-99.99,,,-99.99,,2013-07-31 02:11:00,
2013-07-30 20:22:00,77.0,31.0,-100.00,SW,222,9.0,11.0,19,-99.99,,,-99.99,,2013-07-31 02:22:00,
2013-07-30 20:32:00,77.0,30.0,-100.00,South,189,8.0,11.0,18,-99.99,,,-99.99,,2013-07-31 02:32:00,
2013-07-30 20:42:00,76.0,31.0,-100.00,SSW,204,5.0,8.0,19,-99.99,,,-99.99,,2013-07-31 02:42:00,
2013-07-30 20:52:00,74.0,34.0,-100.00,NW,310,1.0,8.0,23,-99.99,,,-99.99,,2013-07-31 02:52:00,
2013-07-30 21:02:00,71.0,33.0,-100.00,SW,226,4.0,8.0,24,-99.99,,,-99.99,,2013-07-31 03:02:00,
2013-07-30 21:22:00,66.0,37.0,-100.00,NNE,27,0.0,1.0,33,-99.99,,,-99.99,,2013-07-31 03:22:00,
2013-07-30 21:42:00,63.0,35.0,-100.00,ENE,58,1.0,2.0,35,-99.99,,,-99.99,,2013-07-31 03:42:00,
2013-07-30 21:52:00,63.0,35.0,-100.00,East,79,3.0,4.0,35,-99.99,,,-99.99,,2013-07-31 03:52:00,
2013-07-30 22:02:00,61.0,35.0,-100.00,North,0,2.0,3.0,36,-99.99,,,-99.99,,2013-07-31 04:02:00,
2013-07-30 22:12:00,63.0,34.0,-100.00,ENE,59,0.0,2.0,32,-99.99,,,-99.99,,2013-07-31 04:12:00,
2013-07-30 22:32:00,63.0,34.0,-100.00,East,82,3.0,4.0,34,-99.99,,,-99.99,,2013-07-31 04:32:00,
2013-07-30 22:42:00,61.0,34.0,-100.00,East,79,3.0,4.0,36,-99.99,,,-99.99,,2013-07-31 04:42:00,
2013-07-30 22:52:00,69.0,31.0,-100.00,East,88,10.0,10.0,24,-99.99,,,-99.99,,2013-07-31 04:52:00,
2013-07-30 23:11:00,68.0,32.0,-100.00,ENE,77,10.0,11.0,25,-99.99,,,-99.99,,2013-07-31 05:11:00,
2013-07-30 23:22:00,68.0,32.0,-100.00,ENE,61,12.0,12.0,26,-99.99,,,-99.99,,2013-07-31 05:22:00,
2013-07-30 23:32:00,68.0,32.0,-100.00,ENE,61,12.0,12.0,26,-99.99,,,-99.99,,2013-07-31 05:32:00,
2013-07-30 23:42:00,65.0,33.0,-100.00,NE,53,13.0,15.0,30,-99.99,,,-99.99,,2013-07-31 05:42:00,
2013-07-30 23:52:00,65.0,33.0,-100.00,NE,53,13.0,15.0,30,-99.99,,,-99.99,,2013-07-31 05:52:00,